EBOS

Ostend-Bruges International Airport

Ostend, Belgium
METAR EBOS 250020Z 23016KT 9999 BKN010 12/10 Q1009 TEMPO 26026G28KT 4500 RA BKN008
Observed Flight Rules
Apr-25 @ 00:20 UTC (16 minutes ago) Marginal Visual Flight Rules
Wind Visibility Clouds
230° at 16 knots 10,000+ meters
  • Broken at 1,000' AGL
Temperatures Readings
Current 12°C / 54°F
Dewpoint 10°C / 50°F
Humidity 88%
Altimeter 29.79" Hg
Pressure 1009 hPa
Elevation 5
METAR EBOS 250020Z 23016KT 9999 BKN010 12/10 Q1009 TEMPO 26026G28KT 4500 RA BKN008
Observed Flight Rules
Apr-25 @ 00:20 UTC
(16 minutes ago)
MVFR
Wind Visibility
230° at 16 knots 10,000+ meters
Clouds
  • Broken at 1,000' AGL
Temperature Dewpoint
12°C / 54°F 10°C / 50°F
Humidity Altimeter Pressure
88% 29.79" Hg 1009 hPa